Corona Emblem — 3FHF8 — position and weather

sailwx.info

Track history (hours):
 
Tides and Currents Weather Stations Pressure Air Temp Water Temp Dewpoint Dewpoint Depression Visibility Wind Speed Wind Dir Waves Ship Positions

Corona Emblem

Last reported at 2015-Aug-12 17:34 UTC. Time now 2015-Aug-30 11:59 UTC.
Position S 27°04' E 153°51'.
Warning: this ship's position is 17 days out of date.

Length 230 m; beam 36 m.

Type: Cargo ship. MMSI: 354224000.

Date/timePositionNaut miles runAvg speedWind from/ knotsBaromVisibWave heightAir tempDewpointWater temp
2015-Aug-12 17:34S 27°04' E 153°51'4610.1
2015-Aug-12 13:03S 27°49' E 153°48'13 8.8
2015-Aug-12 11:34S 28°02' E 153°49'9 8.9
2015-Aug-12 10:30S 28°12' E 153°48'247 8.8
2015-Aug-11 06:34S 32°14' E 152°51'10 9.7
2015-Aug-11 05:33S 32°22' E 152°45'2010.1
2015-Aug-11 03:33S 32°37' E 152°30'1110.7
2015-Aug-11 02:34S 32°45' E 152°21'1110.9
2015-Aug-11 01:33S 32°51' E 152°10'1110.7
2015-Aug-11 00:33S 32°55' E 151°58'8 7.6
2015-Aug-10 23:34S 32°55' E 151°49'3 3.3
2015-Aug-10 22:34S 32°53' E 151°46'0 0.3
2015-Aug-10 21:32S 32°53' E 151°46'0 0.0
2015-Aug-10 20:32S 32°53' E 151°46'0 0.0
2015-Aug-10 19:32S 32°53' E 151°46'0 0.0
2015-Aug-10 18:32S 32°53' E 151°46'0 0.0
2015-Aug-10 17:32S 32°53' E 151°46'0 0.0
2015-Aug-10 16:32S 32°53' E 151°46'0 0.0
2015-Aug-10 15:32S 32°53' E 151°46'0 0.0
2015-Aug-10 14:29S 32°53' E 151°46'0 0.0
2015-Aug-10 13:32S 32°53' E 151°46'0 0.0
2015-Aug-10 12:32S 32°53' E 151°46'0 0.0
2015-Aug-10 11:32S 32°53' E 151°46'0 0.0
2015-Aug-10 10:32S 32°53' E 151°46'0 0.0
2015-Aug-10 09:32S 32°53' E 151°46'0 0.0
2015-Aug-10 08:32S 32°53' E 151°46'0 0.0
2015-Aug-10 07:32S 32°53' E 151°46'0 0.0
2015-Aug-10 06:32S 32°53' E 151°46'0 0.0
2015-Aug-10 05:32S 32°53' E 151°46'0 0.0
2015-Aug-10 04:32S 32°53' E 151°46'0 0.0
2015-Aug-10 03:33S 32°53' E 151°46'4 3.8
2015-Aug-10 02:34S 32°55' E 151°49'8 7.2
2015-Aug-10 01:28S 33°03' E 151°50'  
2015-Aug-06 16:23S 33°08' E 151°48'8 9.3
2015-Aug-06 15:33S 33°03' E 151°55'1111.0
2015-Aug-06 14:33S 32°57' E 152°05'1110.7
2015-Aug-06 13:33S 32°49' E 152°15'1110.7
2015-Aug-06 12:33S 32°42' E 152°24'1111.0
2015-Aug-06 11:33S 32°34' E 152°33'1111.2
2015-Aug-06 10:33S 32°26' E 152°42'285 6.5
2015-Aug-04 14:33S 27°47' E 153°49'2411.5
2015-Aug-04 12:26S 27°23' E 153°50'1011.6
2015-Aug-04 11:33S 27°13' E 153°50'1311.4
2015-Aug-04 10:24S 26°60' E 153°50'  
Track history (hours):
 
Tides and Currents Weather Stations Pressure Air Temp Water Temp Dewpoint Dewpoint Depression Visibility Wind Speed Wind Dir Waves Ship Positions

Corona Emblem

Last reported at 2015-Aug-12 17:34 UTC. Time now 2015-Aug-30 11:59 UTC.
Position S 27°04' E 153°51'.
Warning: this ship's position is 17 days out of date.

Length 230 m; beam 36 m.

Type: Cargo ship. MMSI: 354224000.

Date/timePositionNaut miles runAvg speedWind from/ knotsBaromVisibWave heightAir tempDewpointWater temp
2015-Aug-12 17:34S 27°04' E 153°51'4610.1
2015-Aug-12 13:03S 27°49' E 153°48'13 8.8
2015-Aug-12 11:34S 28°02' E 153°49'9 8.9
2015-Aug-12 10:30S 28°12' E 153°48'247 8.8
2015-Aug-11 06:34S 32°14' E 152°51'10 9.7
2015-Aug-11 05:33S 32°22' E 152°45'2010.1
2015-Aug-11 03:33S 32°37' E 152°30'1110.7
2015-Aug-11 02:34S 32°45' E 152°21'1110.9
2015-Aug-11 01:33S 32°51' E 152°10'1110.7
2015-Aug-11 00:33S 32°55' E 151°58'8 7.6
2015-Aug-10 23:34S 32°55' E 151°49'3 3.3
2015-Aug-10 22:34S 32°53' E 151°46'0 0.3
2015-Aug-10 21:32S 32°53' E 151°46'0 0.0
2015-Aug-10 20:32S 32°53' E 151°46'0 0.0
2015-Aug-10 19:32S 32°53' E 151°46'0 0.0
2015-Aug-10 18:32S 32°53' E 151°46'0 0.0
2015-Aug-10 17:32S 32°53' E 151°46'0 0.0
2015-Aug-10 16:32S 32°53' E 151°46'0 0.0
2015-Aug-10 15:32S 32°53' E 151°46'0 0.0
2015-Aug-10 14:29S 32°53' E 151°46'0 0.0
2015-Aug-10 13:32S 32°53' E 151°46'0 0.0
2015-Aug-10 12:32S 32°53' E 151°46'0 0.0
2015-Aug-10 11:32S 32°53' E 151°46'0 0.0
2015-Aug-10 10:32S 32°53' E 151°46'0 0.0
2015-Aug-10 09:32S 32°53' E 151°46'0 0.0
2015-Aug-10 08:32S 32°53' E 151°46'0 0.0
2015-Aug-10 07:32S 32°53' E 151°46'0 0.0
2015-Aug-10 06:32S 32°53' E 151°46'0 0.0
2015-Aug-10 05:32S 32°53' E 151°46'0 0.0
2015-Aug-10 04:32S 32°53' E 151°46'0 0.0
2015-Aug-10 03:33S 32°53' E 151°46'4 3.8
2015-Aug-10 02:34S 32°55' E 151°49'8 7.2
2015-Aug-10 01:28S 33°03' E 151°50'  
2015-Aug-06 16:23S 33°08' E 151°48'8 9.3
2015-Aug-06 15:33S 33°03' E 151°55'1111.0
2015-Aug-06 14:33S 32°57' E 152°05'1110.7
2015-Aug-06 13:33S 32°49' E 152°15'1110.7
2015-Aug-06 12:33S 32°42' E 152°24'1111.0
2015-Aug-06 11:33S 32°34' E 152°33'1111.2
2015-Aug-06 10:33S 32°26' E 152°42'285 6.5
2015-Aug-04 14:33S 27°47' E 153°49'2411.5
2015-Aug-04 12:26S 27°23' E 153°50'1011.6
2015-Aug-04 11:33S 27°13' E 153°50'1311.4
2015-Aug-04 10:24S 26°60' E 153°50'  

Dump ship's entire track history